PWSweather.com
Personal Weather Stations
Station Observations
RRFWEATHER
Rail Road Flat, Rail Road Flat, CA 95248

Rail Road FlatRail Road Flat, CA 95248

Lat: 38.306238, Lon: -120.514548

Elevation: 2808

Station Type: Oregon Scientific WMR-968

http://weather.railroadflat.org

High Low Average
Temperature 42.2°F5.7°F 37.6°F3.1°F 40.9°F4.9°F
Dew Point 42.2°F5.7°F 37.6°F3.1°F 40.9°F4.9°F
Winds 13.2 mph SE21.2 mph SE Calm Calm 6.2 mph 10.0 mph
Wind Gusts 17.4 mph28.0 mph -- 8.5 mph13.7 mph
Humidity 96% 96% 96%
Pressure 29.83 in1010.20 in 29.71 in1006.10 in -
Precipitation 13.08 in332.20 in - -
Hour Temp Dew Point Humidity Winds Wind Gusts Pressure Precip Precip Rate Daily Precip Total
12:00 AM 37.6°F3.1°C 37.6°F3.1°C 96% 5.8 mph SE9.3 kmh SE 5.8 mph9.3 kmh 29.83 in1010.2 mb 0.04 in1.0 mm 0.00 in0.0 mm 0.04 in1.0 mm
12:05 AM 37.6°F3.1°C 37.6°F3.1°C 96% 3.1 mph SE5.0 kmh SE 6.7 mph10.8 kmh 29.83 in1010.2 mb 0.08 in2.0 mm 0.48 in12.2 mm 0.08 in2.0 mm
12:10 AM 37.7°F3.2°C 37.7°F3.2°C 96% 4.0 mph SE6.4 kmh SE 7.6 mph12.2 kmh 29.83 in1010.2 mb 0.08 in2.0 mm 0.00 in0.0 mm 0.08 in2.0 mm
12:15 AM 37.7°F3.2°C 37.7°F3.2°C 96% 4.9 mph E7.9 kmh E 10.1 mph16.3 kmh 29.80 in1009.1 mb 0.08 in2.0 mm 0.00 in0.0 mm 0.08 in2.0 mm
12:20 AM 38.1°F3.4°C 38.1°F3.4°C 96% 8.1 mph E13.0 kmh E 8.7 mph14.0 kmh 29.80 in1009.1 mb 0.12 in3.0 mm 0.48 in12.2 mm 0.12 in3.0 mm
12:25 AM 38.3°F3.5°C 38.3°F3.5°C 96% 4.0 mph E6.4 kmh E 11.0 mph17.7 kmh 29.80 in1009.1 mb 0.12 in3.0 mm 0.00 in0.0 mm 0.12 in3.0 mm
12:30 AM 38.3°F3.5°C 38.3°F3.5°C 96% 8.7 mph ESE14.0 kmh ESE 8.7 mph14.0 kmh 29.77 in1008.1 mb 0.12 in3.0 mm 0.00 in0.0 mm 0.12 in3.0 mm
12:35 AM 38.6°F3.7°C 38.6°F3.7°C 96% 8.3 mph SSE13.4 kmh SSE 8.7 mph14.0 kmh 29.77 in1008.1 mb 0.16 in4.1 mm 0.48 in12.2 mm 0.16 in4.1 mm
12:40 AM 38.8°F3.8°C 38.8°F3.8°C 96% 4.0 mph SE6.4 kmh SE 5.4 mph8.7 kmh 29.77 in1008.1 mb 0.16 in4.1 mm 0.00 in0.0 mm 0.16 in4.1 mm
12:45 AM 39.0°F3.9°C 39.0°F3.9°C 96% 7.6 mph SE12.2 kmh SE 7.6 mph12.2 kmh 29.80 in1009.1 mb 0.16 in4.1 mm 0.00 in0.0 mm 0.16 in4.1 mm
12:50 AM 39.2°F4.0°C 39.2°F4.0°C 96% 7.2 mph SE11.6 kmh SE 7.2 mph11.6 kmh 29.80 in1009.1 mb 0.12 in3.0 mm 0.00 in0.0 mm 0.16 in4.1 mm
12:55 AM 39.4°F4.1°C 39.4°F4.1°C 96% 6.3 mph E10.1 kmh E 8.7 mph14.0 kmh 29.80 in1009.1 mb 0.12 in3.0 mm 0.00 in0.0 mm 0.16 in4.1 mm
01:00 AM 39.4°F4.1°C 39.4°F4.1°C 96% 5.4 mph SE8.7 kmh SE 5.4 mph8.7 kmh 29.77 in1008.1 mb 0.12 in3.0 mm 0.00 in0.0 mm 0.16 in4.1 mm
01:05 AM 39.4°F4.1°C 39.4°F4.1°C 96% 8.1 mph SE13.0 kmh SE 8.7 mph14.0 kmh 29.77 in1008.1 mb 0.12 in3.0 mm 0.00 in0.0 mm 0.16 in4.1 mm
01:10 AM 39.5°F4.2°C 39.5°F4.2°C 96% 8.1 mph SE13.0 kmh SE 10.1 mph16.3 kmh 29.77 in1008.1 mb 0.12 in3.0 mm 0.00 in0.0 mm 0.16 in4.1 mm
01:15 AM 40.1°F4.5°C 40.1°F4.5°C 96% 11.4 mph SSE18.3 kmh SSE 12.8 mph20.6 kmh 29.77 in1008.1 mb 0.12 in3.0 mm 0.00 in0.0 mm 0.16 in4.1 mm
01:20 AM 40.1°F4.5°C 40.1°F4.5°C 96% 11.0 mph S17.7 kmh S 12.8 mph20.6 kmh 29.77 in1008.1 mb 0.08 in2.0 mm 0.00 in0.0 mm 0.16 in4.1 mm
01:25 AM 40.3°F4.6°C 40.3°F4.6°C 96% 8.1 mph SSE13.0 kmh SSE 12.8 mph20.6 kmh 29.77 in1008.1 mb 0.08 in2.0 mm 0.00 in0.0 mm 0.16 in4.1 mm
01:30 AM 40.4°F4.7°C 40.4°F4.7°C 96% 7.6 mph S12.2 kmh S 7.6 mph12.2 kmh 29.77 in1008.1 mb 0.08 in2.0 mm 0.00 in0.0 mm 0.16 in4.1 mm
01:35 AM 40.4°F4.7°C 40.4°F4.7°C 96% 7.6 mph SSE12.2 kmh SSE 10.5 mph16.9 kmh 29.77 in1008.1 mb 0.08 in2.0 mm 0.00 in0.0 mm 0.16 in4.1 mm
01:40 AM 40.4°F4.7°C 40.4°F4.7°C 96% 10.1 mph S16.3 kmh S 10.1 mph16.3 kmh 29.77 in1008.1 mb 0.04 in1.0 mm 0.00 in0.0 mm 0.16 in4.1 mm
01:45 AM 40.4°F4.7°C 40.4°F4.7°C 96% 7.6 mph SE12.2 kmh SE 10.1 mph16.3 kmh 29.77 in1008.1 mb 0.04 in1.0 mm 0.00 in0.0 mm 0.16 in4.1 mm
01:50 AM 40.4°F4.7°C 40.4°F4.7°C 96% 8.7 mph SE14.0 kmh SE 12.8 mph20.6 kmh 29.77 in1008.1 mb 0.04 in1.0 mm 0.00 in0.0 mm 0.16 in4.1 mm
01:55 AM 40.6°F4.8°C 40.6°F4.8°C 96% 7.6 mph S12.2 kmh S 12.8 mph20.6 kmh 29.77 in1008.1 mb 0.04 in1.0 mm 0.00 in0.0 mm 0.16 in4.1 mm
02:00 AM 40.6°F4.8°C 40.6°F4.8°C 96% 7.6 mph SSE12.2 kmh SSE 8.1 mph13.0 kmh 29.77 in1008.1 mb 0.04 in1.0 mm 0.00 in0.0 mm 0.16 in4.1 mm
02:05 AM 40.6°F4.8°C 40.6°F4.8°C 96% 7.6 mph SE12.2 kmh SE 10.5 mph16.9 kmh 29.77 in1008.1 mb 0.04 in1.0 mm 0.00 in0.0 mm 0.16 in4.1 mm
02:10 AM 40.8°F4.9°C 40.8°F4.9°C 96% 8.7 mph SE14.0 kmh SE 8.7 mph14.0 kmh 29.77 in1008.1 mb 0.00 in0.0 mm 0.00 in0.0 mm 0.16 in4.1 mm
02:15 AM 40.8°F4.9°C 40.8°F4.9°C 96% 8.1 mph SE13.0 kmh SE 10.5 mph16.9 kmh 29.74 in1007.1 mb 0.00 in0.0 mm 0.00 in0.0 mm 0.16 in4.1 mm
02:20 AM 41.0°F5.0°C 41.0°F5.0°C 96% 8.1 mph SE13.0 kmh SE 8.3 mph13.4 kmh 29.74 in1007.1 mb 0.00 in0.0 mm 0.00 in0.0 mm 0.16 in4.1 mm
02:25 AM 41.0°F5.0°C 41.0°F5.0°C 96% 11.0 mph S17.7 kmh S 11.0 mph17.7 kmh 29.74 in1007.1 mb 0.00 in0.0 mm 0.00 in0.0 mm 0.16 in4.1 mm
02:30 AM 41.2°F5.1°C 41.2°F5.1°C 96% 12.3 mph SSE19.8 kmh SSE 12.3 mph19.8 kmh 29.74 in1007.1 mb 0.00 in0.0 mm 0.00 in0.0 mm 0.16 in4.1 mm
02:35 AM 41.3°F5.2°C 41.3°F5.2°C 96% 10.1 mph SE16.3 kmh SE 12.8 mph20.6 kmh 29.74 in1007.1 mb 0.00 in0.0 mm 0.00 in0.0 mm 0.16 in4.1 mm
02:40 AM 41.5°F5.3°C 41.5°F5.3°C 96% 6.3 mph E10.1 kmh E 6.3 mph10.1 kmh 29.74 in1007.1 mb 0.00 in0.0 mm 0.00 in0.0 mm 0.16 in4.1 mm
02:45 AM 41.5°F5.3°C 41.5°F5.3°C 96% 8.3 mph SE13.4 kmh SE 15.4 mph24.8 kmh 29.74 in1007.1 mb 0.00 in0.0 mm 0.00 in0.0 mm 0.16 in4.1 mm
02:50 AM 41.3°F5.2°C 41.3°F5.2°C 96% 5.4 mph ESE8.7 kmh ESE 8.1 mph13.0 kmh 29.74 in1007.1 mb 0.00 in0.0 mm 0.00 in0.0 mm 0.16 in4.1 mm
02:55 AM 41.5°F5.3°C 41.5°F5.3°C 96% 12.3 mph ESE19.8 kmh ESE 13.2 mph21.2 kmh 29.74 in1007.1 mb 0.00 in0.0 mm 0.00 in0.0 mm 0.16 in4.1 mm
03:00 AM 41.7°F5.4°C 41.7°F5.4°C 96% 10.5 mph S16.9 kmh S 14.5 mph23.3 kmh 29.74 in1007.1 mb 0.00 in0.0 mm 0.00 in0.0 mm 0.16 in4.1 mm
03:05 AM 41.7°F5.4°C 41.7°F5.4°C 96% 8.3 mph SE13.4 kmh SE 14.5 mph23.3 kmh 29.74 in1007.1 mb 0.00 in0.0 mm 0.00 in0.0 mm 0.16 in4.1 mm
03:10 AM 41.9°F5.5°C 41.9°F5.5°C 96% 8.1 mph SSE13.0 kmh SSE 10.5 mph16.9 kmh 29.74 in1007.1 mb 0.00 in0.0 mm 0.00 in0.0 mm 0.16 in4.1 mm
03:15 AM 41.7°F5.4°C 41.7°F5.4°C 96% 11.0 mph S17.7 kmh S 17.0 mph27.4 kmh 29.71 in1006.1 mb 0.00 in0.0 mm 0.00 in0.0 mm 0.16 in4.1 mm
03:20 AM 41.9°F5.5°C 41.9°F5.5°C 96% 8.3 mph S13.4 kmh S 10.1 mph16.3 kmh 29.71 in1006.1 mb 0.00 in0.0 mm 0.00 in0.0 mm 0.16 in4.1 mm
03:25 AM 42.1°F5.6°C 42.1°F5.6°C 96% 8.1 mph SSE13.0 kmh SSE 10.1 mph16.3 kmh 29.71 in1006.1 mb 0.00 in0.0 mm 0.00 in0.0 mm 0.16 in4.1 mm
03:30 AM 41.9°F5.5°C 41.9°F5.5°C 96% 8.7 mph S14.0 kmh S 10.5 mph16.9 kmh 29.71 in1006.1 mb 0.00 in0.0 mm 0.00 in0.0 mm 0.16 in4.1 mm
03:35 AM 42.1°F5.6°C 42.1°F5.6°C 96% 8.1 mph SE13.0 kmh SE 12.3 mph19.8 kmh 29.71 in1006.1 mb 0.00 in0.0 mm 0.00 in0.0 mm 0.16 in4.1 mm
03:40 AM 42.1°F5.6°C 42.1°F5.6°C 96% 8.3 mph SE13.4 kmh SE 8.3 mph13.4 kmh 29.71 in1006.1 mb 0.00 in0.0 mm 0.00 in0.0 mm 0.16 in4.1 mm
03:45 AM 41.9°F5.5°C 41.9°F5.5°C 96% 11.0 mph ESE17.7 kmh ESE 12.8 mph20.6 kmh 29.71 in1006.1 mb 0.00 in0.0 mm 0.00 in0.0 mm 0.16 in4.1 mm
03:50 AM 41.9°F5.5°C 41.9°F5.5°C 96% 8.1 mph ESE13.0 kmh ESE 8.7 mph14.0 kmh 29.71 in1006.1 mb 0.04 in1.0 mm 0.48 in12.2 mm 0.20 in5.1 mm
03:55 AM 42.1°F5.6°C 42.1°F5.6°C 96% 7.6 mph SE12.2 kmh SE 13.6 mph21.9 kmh 29.71 in1006.1 mb 0.04 in1.0 mm 0.00 in0.0 mm 0.20 in5.1 mm
04:00 AM 41.9°F5.5°C 41.9°F5.5°C 96% 6.3 mph SE10.1 kmh SE 8.1 mph13.0 kmh 29.71 in1006.1 mb 0.04 in1.0 mm 0.00 in0.0 mm 0.20 in5.1 mm
04:05 AM 42.1°F5.6°C 42.1°F5.6°C 96% 6.3 mph ESE10.1 kmh ESE 12.3 mph19.8 kmh 29.71 in1006.1 mb 0.04 in1.0 mm 0.00 in0.0 mm 0.20 in5.1 mm
04:10 AM 42.1°F5.6°C 42.1°F5.6°C 96% 8.7 mph SE14.0 kmh SE 10.1 mph16.3 kmh 29.71 in1006.1 mb 0.04 in1.0 mm 0.00 in0.0 mm 0.20 in5.1 mm
04:15 AM 42.1°F5.6°C 42.1°F5.6°C 96% 8.7 mph SE14.0 kmh SE 11.0 mph17.7 kmh 29.74 in1007.1 mb 0.04 in1.0 mm 0.00 in0.0 mm 0.20 in5.1 mm
04:20 AM 42.2°F5.7°C 42.2°F5.7°C 96% 10.1 mph SE16.3 kmh SE 14.5 mph23.3 kmh 29.74 in1007.1 mb 0.04 in1.0 mm 0.00 in0.0 mm 0.20 in5.1 mm
04:25 AM 42.2°F5.7°C 42.2°F5.7°C 96% 10.1 mph SE16.3 kmh SE 15.4 mph24.8 kmh 29.74 in1007.1 mb 0.04 in1.0 mm 0.00 in0.0 mm 0.20 in5.1 mm
04:30 AM 42.2°F5.7°C 42.2°F5.7°C 96% 7.6 mph ESE12.2 kmh ESE 8.1 mph13.0 kmh 29.71 in1006.1 mb 0.04 in1.0 mm 0.00 in0.0 mm 0.20 in5.1 mm
04:35 AM 42.2°F5.7°C 42.2°F5.7°C 96% 7.6 mph SSE12.2 kmh SSE 10.1 mph16.3 kmh 29.71 in1006.1 mb 0.04 in1.0 mm 0.00 in0.0 mm 0.20 in5.1 mm
04:41 AM 42.2°F5.7°C 42.2°F5.7°C 96% 10.5 mph S16.9 kmh S 10.5 mph16.9 kmh 29.74 in1007.1 mb 0.04 in1.0 mm 0.00 in0.0 mm 0.20 in5.1 mm
04:45 AM 42.1°F5.6°C 42.1°F5.6°C 96% 8.1 mph SE13.0 kmh SE 11.0 mph17.7 kmh 29.74 in1007.1 mb 0.04 in1.0 mm 0.00 in0.0 mm 0.20 in5.1 mm
04:50 AM 42.1°F5.6°C 42.1°F5.6°C 96% 10.5 mph SE16.9 kmh SE 11.0 mph17.7 kmh 29.74 in1007.1 mb 0.00 in0.0 mm 0.00 in0.0 mm 0.20 in5.1 mm
04:55 AM 42.1°F5.6°C 42.1°F5.6°C 96% 7.6 mph SSE12.2 kmh SSE 11.9 mph19.2 kmh 29.74 in1007.1 mb 0.04 in1.0 mm 0.48 in12.2 mm 0.24 in6.1 mm
05:00 AM 42.1°F5.6°C 42.1°F5.6°C 96% 5.8 mph S9.3 kmh S 8.1 mph13.0 kmh 29.74 in1007.1 mb 0.04 in1.0 mm 0.00 in0.0 mm 0.24 in6.1 mm
05:05 AM 41.9°F5.5°C 41.9°F5.5°C 96% 6.3 mph SSE10.1 kmh SSE 10.5 mph16.9 kmh 29.74 in1007.1 mb 0.04 in1.0 mm 0.00 in0.0 mm 0.24 in6.1 mm
05:10 AM 42.1°F5.6°C 42.1°F5.6°C 96% 11.0 mph S17.7 kmh S 11.0 mph17.7 kmh 29.74 in1007.1 mb 0.04 in1.0 mm 0.00 in0.0 mm 0.24 in6.1 mm
05:15 AM 42.1°F5.6°C 42.1°F5.6°C 96% 7.2 mph S11.6 kmh S 13.2 mph21.2 kmh 29.74 in1007.1 mb 0.08 in2.0 mm 0.48 in12.2 mm 0.28 in7.1 mm
05:20 AM 41.9°F5.5°C 41.9°F5.5°C 96% 11.0 mph S17.7 kmh S 12.8 mph20.6 kmh 29.74 in1007.1 mb 0.08 in2.0 mm 0.00 in0.0 mm 0.28 in7.1 mm
05:25 AM 41.7°F5.4°C 41.7°F5.4°C 96% 10.1 mph S16.3 kmh S 13.2 mph21.2 kmh 29.74 in1007.1 mb 0.08 in2.0 mm 0.00 in0.0 mm 0.28 in7.1 mm
05:30 AM 41.7°F5.4°C 41.7°F5.4°C 96% 8.1 mph S13.0 kmh S 8.1 mph13.0 kmh 29.74 in1007.1 mb 0.08 in2.0 mm 0.00 in0.0 mm 0.28 in7.1 mm
05:35 AM 41.5°F5.3°C 41.5°F5.3°C 96% 11.9 mph S19.2 kmh S 13.2 mph21.2 kmh 29.74 in1007.1 mb 0.12 in3.0 mm 0.48 in12.2 mm 0.32 in8.1 mm
05:40 AM 41.3°F5.2°C 41.3°F5.2°C 96% 7.6 mph S12.2 kmh S 15.0 mph24.1 kmh 29.74 in1007.1 mb 0.12 in3.0 mm 0.00 in0.0 mm 0.32 in8.1 mm
05:45 AM 41.3°F5.2°C 41.3°F5.2°C 96% 5.8 mph S9.3 kmh S 15.0 mph24.1 kmh 29.74 in1007.1 mb 0.12 in3.0 mm 0.00 in0.0 mm 0.32 in8.1 mm
05:50 AM 41.3°F5.2°C 41.3°F5.2°C 96% 8.3 mph S13.4 kmh S 11.0 mph17.7 kmh 29.74 in1007.1 mb 0.12 in3.0 mm 0.00 in0.0 mm 0.32 in8.1 mm
05:55 AM 41.2°F5.1°C 41.2°F5.1°C 96% 7.6 mph SE12.2 kmh SE 11.0 mph17.7 kmh 29.74 in1007.1 mb 0.12 in3.0 mm 0.00 in0.0 mm 0.32 in8.1 mm
06:00 AM 41.2°F5.1°C 41.2°F5.1°C 96% 8.1 mph S13.0 kmh S 8.1 mph13.0 kmh 29.77 in1008.1 mb 0.12 in3.0 mm 0.00 in0.0 mm 0.32 in8.1 mm
06:05 AM 41.2°F5.1°C 41.2°F5.1°C 96% 5.4 mph WSW8.7 kmh WSW 11.0 mph17.7 kmh 29.77 in1008.1 mb 0.12 in3.0 mm 0.00 in0.0 mm 0.32 in8.1 mm
06:10 AM 41.2°F5.1°C 41.2°F5.1°C 96% 5.8 mph S9.3 kmh S 10.1 mph16.3 kmh 29.77 in1008.1 mb 0.12 in3.0 mm 0.00 in0.0 mm 0.32 in8.1 mm
06:15 AM 41.2°F5.1°C 41.2°F5.1°C 96% 8.1 mph ESE13.0 kmh ESE 13.2 mph21.2 kmh 29.77 in1008.1 mb 0.12 in3.0 mm 0.00 in0.0 mm 0.32 in8.1 mm
06:20 AM 41.2°F5.1°C 41.2°F5.1°C 96% 9.6 mph S15.4 kmh S 9.6 mph15.4 kmh 29.77 in1008.1 mb 0.08 in2.0 mm 0.00 in0.0 mm 0.32 in8.1 mm
06:25 AM 41.3°F5.2°C 41.3°F5.2°C 96% 5.8 mph SW9.3 kmh SW 14.5 mph23.3 kmh 29.77 in1008.1 mb 0.08 in2.0 mm 0.00 in0.0 mm 0.32 in8.1 mm
06:30 AM 41.3°F5.2°C 41.3°F5.2°C 96% 5.4 mph S8.7 kmh S 8.3 mph13.4 kmh 29.77 in1008.1 mb 0.12 in3.0 mm 0.48 in12.2 mm 0.36 in9.1 mm
06:35 AM 41.3°F5.2°C 41.3°F5.2°C 96% 7.6 mph S12.2 kmh S 17.4 mph28.0 kmh 29.77 in1008.1 mb 0.12 in3.0 mm 0.00 in0.0 mm 0.36 in9.1 mm
06:40 AM 41.3°F5.2°C 41.3°F5.2°C 96% 8.7 mph S14.0 kmh S 8.7 mph14.0 kmh 29.77 in1008.1 mb 0.08 in2.0 mm 0.00 in0.0 mm 0.36 in9.1 mm
06:45 AM 41.3°F5.2°C 41.3°F5.2°C 96% 8.1 mph SSW13.0 kmh SSW 16.8 mph27.0 kmh 29.77 in1008.1 mb 0.08 in2.0 mm 0.00 in0.0 mm 0.36 in9.1 mm
06:50 AM 41.3°F5.2°C 41.3°F5.2°C 96% 13.2 mph SE21.2 kmh SE 13.2 mph21.2 kmh 29.77 in1008.1 mb 0.08 in2.0 mm 0.00 in0.0 mm 0.36 in9.1 mm
06:55 AM 41.3°F5.2°C 41.3°F5.2°C 96% 8.3 mph S13.4 kmh S 13.2 mph21.2 kmh 29.77 in1008.1 mb 0.08 in2.0 mm 0.00 in0.0 mm 0.36 in9.1 mm
07:05 AM 41.3°F5.2°C 41.3°F5.2°C 96% 5.8 mph S9.3 kmh S 12.8 mph20.6 kmh 29.77 in1008.1 mb 0.04 in1.0 mm 0.00 in0.0 mm 0.36 in9.1 mm
07:10 AM 41.3°F5.2°C 41.3°F5.2°C 96% 8.1 mph SSE13.0 kmh SSE 8.7 mph14.0 kmh 29.77 in1008.1 mb 0.04 in1.0 mm 0.00 in0.0 mm 0.36 in9.1 mm
07:15 AM 41.3°F5.2°C 41.3°F5.2°C 96% 8.3 mph SE13.4 kmh SE 11.0 mph17.7 kmh 29.77 in1008.1 mb 0.04 in1.0 mm 0.00 in0.0 mm 0.36 in9.1 mm
07:20 AM 41.3°F5.2°C 41.3°F5.2°C 96% 8.1 mph SE13.0 kmh SE 11.0 mph17.7 kmh 29.77 in1008.1 mb 0.04 in1.0 mm 0.00 in0.0 mm 0.36 in9.1 mm
07:25 AM 41.3°F5.2°C 41.3°F5.2°C 96% 12.3 mph ESE19.8 kmh ESE 13.2 mph21.2 kmh 29.77 in1008.1 mb 0.04 in1.0 mm 0.00 in0.0 mm 0.36 in9.1 mm
07:30 AM 41.3°F5.2°C 41.3°F5.2°C 96% 11.0 mph SE17.7 kmh SE 11.0 mph17.7 kmh 29.77 in1008.1 mb 0.00 in0.0 mm 0.00 in0.0 mm 0.36 in9.1 mm
07:35 AM 41.3°F5.2°C 41.3°F5.2°C 96% 5.8 mph S9.3 kmh S 11.0 mph17.7 kmh 29.77 in1008.1 mb 0.00 in0.0 mm 0.00 in0.0 mm 0.36 in9.1 mm
07:40 AM 41.3°F5.2°C 41.3°F5.2°C 96% 10.5 mph SE16.9 kmh SE 12.3 mph19.8 kmh 29.77 in1008.1 mb 0.00 in0.0 mm 0.00 in0.0 mm 0.36 in9.1 mm
07:45 AM 41.3°F5.2°C 41.3°F5.2°C 96% 5.4 mph SSE8.7 kmh SSE 14.1 mph22.7 kmh 29.77 in1008.1 mb 0.00 in0.0 mm 0.00 in0.0 mm 0.36 in9.1 mm
07:50 AM 41.2°F5.1°C 41.2°F5.1°C 96% 5.8 mph S9.3 kmh S 6.3 mph10.1 kmh 29.77 in1008.1 mb 0.00 in0.0 mm 0.00 in0.0 mm 0.36 in9.1 mm
07:55 AM 41.2°F5.1°C 41.2°F5.1°C 96% 8.1 mph SE13.0 kmh SE 10.5 mph16.9 kmh 29.77 in1008.1 mb 0.00 in0.0 mm 0.00 in0.0 mm 0.36 in9.1 mm
08:00 AM 41.2°F5.1°C 41.2°F5.1°C 96% 8.1 mph S13.0 kmh S 8.7 mph14.0 kmh 29.77 in1008.1 mb 0.04 in1.0 mm 0.04 in1.0 mm 0.40 in10.2 mm
08:05 AM 41.2°F5.1°C 41.2°F5.1°C 96% 8.3 mph S13.4 kmh S 15.0 mph24.1 kmh 29.77 in1008.1 mb 0.04 in1.0 mm 0.00 in0.0 mm 0.40 in10.2 mm
08:10 AM 41.2°F5.1°C 41.2°F5.1°C 96% 7.6 mph S12.2 kmh S 8.3 mph13.4 kmh 29.77 in1008.1 mb 0.04 in1.0 mm 0.00 in0.0 mm 0.40 in10.2 mm
08:15 AM 41.0°F5.0°C 41.0°F5.0°C 96% 8.1 mph SSE13.0 kmh SSE 9.6 mph15.4 kmh 29.77 in1008.1 mb 0.04 in1.0 mm 0.00 in0.0 mm 0.40 in10.2 mm
08:20 AM 41.0°F5.0°C 41.0°F5.0°C 96% 9.6 mph SSE15.4 kmh SSE 9.6 mph15.4 kmh 29.77 in1008.1 mb 0.04 in1.0 mm 0.00 in0.0 mm 0.40 in10.2 mm
08:25 AM 41.0°F5.0°C 41.0°F5.0°C 96% 8.7 mph SSE14.0 kmh SSE 14.5 mph23.3 kmh 29.77 in1008.1 mb 0.04 in1.0 mm 0.00 in0.0 mm 0.40 in10.2 mm
08:30 AM 41.0°F5.0°C 41.0°F5.0°C 96% 6.3 mph SSE10.1 kmh SSE 6.3 mph10.1 kmh 29.77 in1008.1 mb 0.04 in1.0 mm 0.00 in0.0 mm 0.40 in10.2 mm
08:35 AM 41.0°F5.0°C 41.0°F5.0°C 96% 8.3 mph ESE13.4 kmh ESE 10.5 mph16.9 kmh 29.77 in1008.1 mb 0.04 in1.0 mm 0.00 in0.0 mm 0.40 in10.2 mm
08:40 AM 41.0°F5.0°C 41.0°F5.0°C 96% 7.6 mph SE12.2 kmh SE 7.6 mph12.2 kmh 29.77 in1008.1 mb 0.04 in1.0 mm 0.00 in0.0 mm 0.40 in10.2 mm
08:45 AM 41.2°F5.1°C 41.2°F5.1°C 96% 10.1 mph SSE16.3 kmh SSE 17.0 mph27.4 kmh 29.77 in1008.1 mb 0.04 in1.0 mm 0.00 in0.0 mm 0.40 in10.2 mm
08:50 AM 41.2°F5.1°C 41.2°F5.1°C 96% 6.3 mph S10.1 kmh S 6.3 mph10.1 kmh 29.77 in1008.1 mb 0.04 in1.0 mm 0.00 in0.0 mm 0.40 in10.2 mm
08:55 AM 41.2°F5.1°C 41.2°F5.1°C 96% 4.9 mph S7.9 kmh S 13.2 mph21.2 kmh 29.77 in1008.1 mb 0.04 in1.0 mm 0.00 in0.0 mm 0.40 in10.2 mm
09:00 AM 41.2°F5.1°C 41.2°F5.1°C 96% 8.7 mph SE14.0 kmh SE 8.7 mph14.0 kmh 29.77 in1008.1 mb 0.00 in0.0 mm 0.00 in0.0 mm 0.40 in10.2 mm
09:05 AM 41.2°F5.1°C 41.2°F5.1°C 96% 6.3 mph S10.1 kmh S 9.6 mph15.4 kmh 29.77 in1008.1 mb 0.00 in0.0 mm 0.00 in0.0 mm 0.40 in10.2 mm
09:10 AM 41.2°F5.1°C 41.2°F5.1°C 96% 8.7 mph SE14.0 kmh SE 8.7 mph14.0 kmh 29.77 in1008.1 mb 0.00 in0.0 mm 0.00 in0.0 mm 0.40 in10.2 mm
09:15 AM 41.2°F5.1°C 41.2°F5.1°C 96% 7.6 mph S12.2 kmh S 12.3 mph19.8 kmh 29.77 in1008.1 mb 0.00 in0.0 mm 0.00 in0.0 mm 0.40 in10.2 mm
09:20 AM 41.2°F5.1°C 41.2°F5.1°C 96% 5.4 mph S8.7 kmh S 8.7 mph14.0 kmh 29.77 in1008.1 mb 0.00 in0.0 mm 0.00 in0.0 mm 0.40 in10.2 mm
09:25 AM 41.2°F5.1°C 41.2°F5.1°C 96% 6.3 mph S10.1 kmh S 8.7 mph14.0 kmh 29.77 in1008.1 mb 0.00 in0.0 mm 0.00 in0.0 mm 0.40 in10.2 mm
09:30 AM 41.2°F5.1°C 41.2°F5.1°C 96% 3.1 mph SW5.0 kmh SW 5.4 mph8.7 kmh 29.77 in1008.1 mb 0.00 in0.0 mm 0.00 in0.0 mm 0.40 in10.2 mm
09:35 AM 41.2°F5.1°C 41.2°F5.1°C 96% 4.0 mph S6.4 kmh S 6.3 mph10.1 kmh 29.77 in1008.1 mb 0.00 in0.0 mm 0.00 in0.0 mm 0.40 in10.2 mm
09:40 AM 41.2°F5.1°C 41.2°F5.1°C 96% 6.3 mph SE10.1 kmh SE 6.3 mph10.1 kmh 29.77 in1008.1 mb 0.00 in0.0 mm 0.00 in0.0 mm 0.40 in10.2 mm
09:45 AM 41.2°F5.1°C 41.2°F5.1°C 96% 5.4 mph SSE8.7 kmh SSE 8.3 mph13.4 kmh 29.77 in1008.1 mb 0.04 in1.0 mm 0.48 in12.2 mm 0.44 in11.2 mm
09:50 AM 41.2°F5.1°C 41.2°F5.1°C 96% 5.8 mph SW9.3 kmh SW 5.8 mph9.3 kmh 29.77 in1008.1 mb 0.04 in1.0 mm 0.00 in0.0 mm 0.44 in11.2 mm
09:55 AM 41.2°F5.1°C 41.2°F5.1°C 96% 3.6 mph S5.8 kmh S 6.3 mph10.1 kmh 29.77 in1008.1 mb 0.04 in1.0 mm 0.00 in0.0 mm 0.44 in11.2 mm
10:00 AM 41.2°F5.1°C 41.2°F5.1°C 96% 3.6 mph SSE5.8 kmh SSE 5.4 mph8.7 kmh 29.77 in1008.1 mb 0.04 in1.0 mm 0.00 in0.0 mm 0.44 in11.2 mm
10:05 AM 41.2°F5.1°C 41.2°F5.1°C 96% 3.6 mph SSE5.8 kmh SSE 8.3 mph13.4 kmh 29.77 in1008.1 mb 0.04 in1.0 mm 0.00 in0.0 mm 0.44 in11.2 mm
10:10 AM 41.2°F5.1°C 41.2°F5.1°C 96% 4.9 mph SSW7.9 kmh SSW 5.8 mph9.3 kmh 29.77 in1008.1 mb 0.12 in3.0 mm 0.96 in24.4 mm 0.52 in13.2 mm
10:15 AM 41.2°F5.1°C 41.2°F5.1°C 96% 4.9 mph S7.9 kmh S 7.6 mph12.2 kmh 29.77 in1008.1 mb 0.12 in3.0 mm 0.00 in0.0 mm 0.52 in13.2 mm
10:20 AM 41.2°F5.1°C 41.2°F5.1°C 96% 4.0 mph SSE6.4 kmh SSE 4.9 mph7.9 kmh 29.77 in1008.1 mb 0.12 in3.0 mm 0.00 in0.0 mm 0.52 in13.2 mm
10:25 AM 41.2°F5.1°C 41.2°F5.1°C 96% 3.1 mph SE5.0 kmh SE 8.7 mph14.0 kmh 29.77 in1008.1 mb 0.12 in3.0 mm 0.00 in0.0 mm 0.52 in13.2 mm
10:30 AM 41.2°F5.1°C 41.2°F5.1°C 96% 3.6 mph S5.8 kmh S 3.6 mph5.8 kmh 29.77 in1008.1 mb 0.12 in3.0 mm 0.00 in0.0 mm 0.52 in13.2 mm
10:35 AM 41.2°F5.1°C 41.2°F5.1°C 96% 5.4 mph SSE8.7 kmh SSE 10.5 mph16.9 kmh 29.77 in1008.1 mb 0.12 in3.0 mm 0.00 in0.0 mm 0.52 in13.2 mm
10:40 AM 41.3°F5.2°C 41.3°F5.2°C 96% 6.3 mph SE10.1 kmh SE 6.3 mph10.1 kmh 29.77 in1008.1 mb 0.12 in3.0 mm 0.00 in0.0 mm 0.52 in13.2 mm
10:45 AM 41.3°F5.2°C 41.3°F5.2°C 96% 4.0 mph S6.4 kmh S 7.6 mph12.2 kmh 29.77 in1008.1 mb 0.12 in3.0 mm 0.00 in0.0 mm 0.52 in13.2 mm
10:50 AM 41.2°F5.1°C 41.2°F5.1°C 96% 4.9 mph SW7.9 kmh SW 6.3 mph10.1 kmh 29.77 in1008.1 mb 0.08 in2.0 mm 0.00 in0.0 mm 0.52 in13.2 mm
10:55 AM 41.2°F5.1°C 41.2°F5.1°C 96% 3.6 mph S5.8 kmh S 6.3 mph10.1 kmh 29.77 in1008.1 mb 0.08 in2.0 mm 0.00 in0.0 mm 0.52 in13.2 mm
11:01 AM 41.2°F5.1°C 41.2°F5.1°C 96% 10.1 mph SSE16.3 kmh SSE 10.1 mph16.3 kmh 29.77 in1008.1 mb 0.08 in2.0 mm 0.00 in0.0 mm 0.52 in13.2 mm
11:05 AM 41.2°F5.1°C 41.2°F5.1°C 96% 4.9 mph SE7.9 kmh SE 10.1 mph16.3 kmh 29.77 in1008.1 mb 0.08 in2.0 mm 0.00 in0.0 mm 0.52 in13.2 mm
11:10 AM 41.2°F5.1°C 41.2°F5.1°C 96% 8.7 mph SSE14.0 kmh SSE 10.5 mph16.9 kmh 29.77 in1008.1 mb 0.00 in0.0 mm 0.00 in0.0 mm 0.52 in13.2 mm
11:15 AM 41.2°F5.1°C 41.2°F5.1°C 96% 5.4 mph SE8.7 kmh SE 10.5 mph16.9 kmh 29.77 in1008.1 mb 0.04 in1.0 mm 0.48 in12.2 mm 0.56 in14.2 mm
11:20 AM 41.2°F5.1°C 41.2°F5.1°C 96% 3.6 mph S5.8 kmh S 4.0 mph6.4 kmh 29.77 in1008.1 mb 0.04 in1.0 mm 0.00 in0.0 mm 0.56 in14.2 mm
11:25 AM 41.2°F5.1°C 41.2°F5.1°C 96% 6.3 mph SSE10.1 kmh SSE 8.3 mph13.4 kmh 29.77 in1008.1 mb 0.04 in1.0 mm 0.00 in0.0 mm 0.56 in14.2 mm
11:30 AM 41.2°F5.1°C 41.2°F5.1°C 96% 7.6 mph SSE12.2 kmh SSE 8.1 mph13.0 kmh 29.77 in1008.1 mb 0.04 in1.0 mm 0.00 in0.0 mm 0.56 in14.2 mm
11:35 AM 41.0°F5.0°C 41.0°F5.0°C 96% 5.8 mph SE9.3 kmh SE 8.3 mph13.4 kmh 29.77 in1008.1 mb 0.04 in1.0 mm 0.00 in0.0 mm 0.56 in14.2 mm
11:40 AM 40.8°F4.9°C 40.8°F4.9°C 96% 3.1 mph SSE5.0 kmh SSE 5.8 mph9.3 kmh 29.77 in1008.1 mb 0.04 in1.0 mm 0.00 in0.0 mm 0.56 in14.2 mm
11:45 AM 40.6°F4.8°C 40.6°F4.8°C 96% 3.6 mph SSE5.8 kmh SSE 6.3 mph10.1 kmh 29.77 in1008.1 mb 0.04 in1.0 mm 0.00 in0.0 mm 0.56 in14.2 mm
11:50 AM 40.4°F4.7°C 40.4°F4.7°C 96% 3.1 mph SSE5.0 kmh SSE 4.9 mph7.9 kmh 29.77 in1008.1 mb 0.04 in1.0 mm 0.00 in0.0 mm 0.56 in14.2 mm
11:55 AM 40.6°F4.8°C 40.6°F4.8°C 96% 4.9 mph SE7.9 kmh SE 5.8 mph9.3 kmh 29.77 in1008.1 mb 0.04 in1.0 mm 0.00 in0.0 mm 0.56 in14.2 mm
12:00 PM 40.8°F4.9°C 40.8°F4.9°C 96% 6.3 mph SSE10.1 kmh SSE 6.3 mph10.1 kmh 29.77 in1008.1 mb 0.04 in1.0 mm 0.00 in0.0 mm 0.56 in14.2 mm
12:05 PM 40.8°F4.9°C 40.8°F4.9°C 96% 3.1 mph S5.0 kmh S 8.7 mph14.0 kmh 29.77 in1008.1 mb 0.04 in1.0 mm 0.00 in0.0 mm 0.56 in14.2 mm
12:10 PM 41.0°F5.0°C 41.0°F5.0°C 96% 8.7 mph SE14.0 kmh SE 13.2 mph21.2 kmh 29.77 in1008.1 mb 0.04 in1.0 mm 0.00 in0.0 mm 0.56 in14.2 mm
12:15 PM 41.0°F5.0°C 41.0°F5.0°C 96% 7.6 mph SSE12.2 kmh SSE 13.2 mph21.2 kmh 29.77 in1008.1 mb 0.04 in1.0 mm 0.00 in0.0 mm 0.56 in14.2 mm
12:20 PM 40.8°F4.9°C 40.8°F4.9°C 96% 5.8 mph S9.3 kmh S 5.8 mph9.3 kmh 29.77 in1008.1 mb 0.04 in1.0 mm 0.00 in0.0 mm 0.56 in14.2 mm
12:25 PM 40.8°F4.9°C 40.8°F4.9°C 96% 6.3 mph S10.1 kmh S 6.3 mph10.1 kmh 29.77 in1008.1 mb 0.04 in1.0 mm 0.00 in0.0 mm 0.56 in14.2 mm
12:30 PM 40.8°F4.9°C 40.8°F4.9°C 96% 5.8 mph SSE9.3 kmh SSE 5.8 mph9.3 kmh 29.77 in1008.1 mb 0.04 in1.0 mm 0.00 in0.0 mm 0.56 in14.2 mm
12:35 PM 40.8°F4.9°C 40.8°F4.9°C 96% 7.6 mph S12.2 kmh S 9.6 mph15.4 kmh 29.77 in1008.1 mb 0.04 in1.0 mm 0.00 in0.0 mm 0.56 in14.2 mm
12:40 PM 40.8°F4.9°C 40.8°F4.9°C 96% 8.1 mph S13.0 kmh S 8.1 mph13.0 kmh 29.77 in1008.1 mb 0.04 in1.0 mm 0.00 in0.0 mm 0.56 in14.2 mm
12:45 PM 41.0°F5.0°C 41.0°F5.0°C 96% 4.0 mph SSE6.4 kmh SSE 9.6 mph15.4 kmh 29.74 in1007.1 mb 0.04 in1.0 mm 0.00 in0.0 mm 0.56 in14.2 mm
12:50 PM 41.0°F5.0°C 41.0°F5.0°C 96% 11.9 mph S19.2 kmh S 11.9 mph19.2 kmh 29.74 in1007.1 mb 0.04 in1.0 mm 0.00 in0.0 mm 0.56 in14.2 mm
12:55 PM 40.8°F4.9°C 40.8°F4.9°C 96% 8.7 mph S14.0 kmh S 11.9 mph19.2 kmh 29.74 in1007.1 mb 0.04 in1.0 mm 0.00 in0.0 mm 0.56 in14.2 mm
01:00 PM 40.8°F4.9°C 40.8°F4.9°C 96% 8.1 mph SSE13.0 kmh SSE 10.5 mph16.9 kmh 29.74 in1007.1 mb 0.04 in1.0 mm 0.00 in0.0 mm 0.56 in14.2 mm
01:05 PM 40.8°F4.9°C 40.8°F4.9°C 96% 10.5 mph SE16.9 kmh SE 10.5 mph16.9 kmh 29.74 in1007.1 mb 0.04 in1.0 mm 0.00 in0.0 mm 0.56 in14.2 mm
01:10 PM 40.8°F4.9°C 40.8°F4.9°C 96% 4.0 mph S6.4 kmh S 4.0 mph6.4 kmh 29.74 in1007.1 mb 0.04 in1.0 mm 0.00 in0.0 mm 0.56 in14.2 mm
01:15 PM 40.8°F4.9°C 40.8°F4.9°C 96% 6.3 mph SE10.1 kmh SE 12.3 mph19.8 kmh 29.74 in1007.1 mb 0.04 in1.0 mm 0.00 in0.0 mm 0.56 in14.2 mm
01:20 PM 40.8°F4.9°C 40.8°F4.9°C 96% 5.8 mph S9.3 kmh S 5.8 mph9.3 kmh 29.74 in1007.1 mb 0.00 in0.0 mm 0.00 in0.0 mm 0.56 in14.2 mm
01:25 PM 40.8°F4.9°C 40.8°F4.9°C 96% 8.3 mph S13.4 kmh S 11.0 mph17.7 kmh 29.74 in1007.1 mb 0.00 in0.0 mm 0.00 in0.0 mm 0.56 in14.2 mm
01:30 PM 40.8°F4.9°C 40.8°F4.9°C 96% 5.8 mph SSE9.3 kmh SSE 5.8 mph9.3 kmh 29.77 in1008.1 mb 0.00 in0.0 mm 0.00 in0.0 mm 0.56 in14.2 mm
01:35 PM 40.8°F4.9°C 40.8°F4.9°C 96% 8.3 mph S13.4 kmh S 14.5 mph23.3 kmh 29.77 in1008.1 mb 0.00 in0.0 mm 0.00 in0.0 mm 0.56 in14.2 mm
01:40 PM 40.8°F4.9°C 40.8°F4.9°C 96% 8.3 mph S13.4 kmh S 8.3 mph13.4 kmh 29.77 in1008.1 mb 0.00 in0.0 mm 0.00 in0.0 mm 0.56 in14.2 mm
01:45 PM 40.6°F4.8°C 40.6°F4.8°C 96% 9.6 mph S15.4 kmh S 15.4 mph24.8 kmh 29.77 in1008.1 mb 0.00 in0.0 mm 0.00 in0.0 mm 0.56 in14.2 mm
01:50 PM 40.6°F4.8°C 40.6°F4.8°C 96% 6.3 mph SE10.1 kmh SE 15.4 mph24.8 kmh 29.77 in1008.1 mb 0.00 in0.0 mm 0.00 in0.0 mm 0.56 in14.2 mm
01:55 PM 40.6°F4.8°C 40.6°F4.8°C 96% 11.4 mph SSE18.3 kmh SSE 11.4 mph18.3 kmh 29.77 in1008.1 mb 0.00 in0.0 mm 0.00 in0.0 mm 0.56 in14.2 mm
02:00 PM 40.6°F4.8°C 40.6°F4.8°C 96% 8.1 mph SE13.0 kmh SE 8.1 mph13.0 kmh 29.77 in1008.1 mb 0.00 in0.0 mm 0.00 in0.0 mm 0.56 in14.2 mm
02:05 PM 40.6°F4.8°C 40.6°F4.8°C 96% 4.9 mph S7.9 kmh S 8.3 mph13.4 kmh 29.77 in1008.1 mb 0.00 in0.0 mm 0.00 in0.0 mm 0.56 in14.2 mm
02:10 PM 40.6°F4.8°C 40.6°F4.8°C 96% 5.8 mph SSE9.3 kmh SSE 8.7 mph14.0 kmh 29.77 in1008.1 mb 0.00 in0.0 mm 0.00 in0.0 mm 0.56 in14.2 mm
02:15 PM 40.6°F4.8°C 40.6°F4.8°C 96% 5.8 mph SSE9.3 kmh SSE 10.1 mph16.3 kmh 29.77 in1008.1 mb 0.00 in0.0 mm 0.00 in0.0 mm 0.56 in14.2 mm
02:20 PM 40.6°F4.8°C 40.6°F4.8°C 96% 8.1 mph SE13.0 kmh SE 10.1 mph16.3 kmh 29.77 in1008.1 mb 0.00 in0.0 mm 0.00 in0.0 mm 0.56 in14.2 mm
02:25 PM 40.4°F4.7°C 40.4°F4.7°C 96% 8.3 mph SSE13.4 kmh SSE 10.1 mph16.3 kmh 29.77 in1008.1 mb 0.00 in0.0 mm 0.00 in0.0 mm 0.56 in14.2 mm
02:30 PM 40.4°F4.7°C 40.4°F4.7°C 96% 8.1 mph SE13.0 kmh SE 8.7 mph14.0 kmh 29.77 in1008.1 mb 0.00 in0.0 mm 0.00 in0.0 mm 0.56 in14.2 mm
02:35 PM 40.4°F4.7°C 40.4°F4.7°C 96% 3.1 mph SSE5.0 kmh SSE 10.5 mph16.9 kmh 29.77 in1008.1 mb 0.00 in0.0 mm 0.00 in0.0 mm 0.56 in14.2 mm
02:40 PM 40.4°F4.7°C 40.4°F4.7°C 96% 8.7 mph S14.0 kmh S 8.7 mph14.0 kmh 29.77 in1008.1 mb 0.00 in0.0 mm 0.00 in0.0 mm 0.56 in14.2 mm
02:45 PM 40.3°F4.6°C 40.3°F4.6°C 96% 4.9 mph S7.9 kmh S 8.7 mph14.0 kmh 29.77 in1008.1 mb 0.00 in0.0 mm 0.00 in0.0 mm 0.56 in14.2 mm
02:50 PM 40.3°F4.6°C 40.3°F4.6°C 96% 4.9 mph SSE7.9 kmh SSE 8.1 mph13.0 kmh 29.77 in1008.1 mb 0.00 in0.0 mm 0.00 in0.0 mm 0.56 in14.2 mm
02:55 PM 40.3°F4.6°C 40.3°F4.6°C 96% 10.5 mph SSE16.9 kmh SSE 10.5 mph16.9 kmh 29.77 in1008.1 mb 0.00 in0.0 mm 0.00 in0.0 mm 0.56 in14.2 mm
03:00 PM 40.3°F4.6°C 40.3°F4.6°C 96% 8.7 mph SE14.0 kmh SE 8.7 mph14.0 kmh 29.77 in1008.1 mb 0.00 in0.0 mm 0.00 in0.0 mm 0.56 in14.2 mm
03:05 PM 40.3°F4.6°C 40.3°F4.6°C 96% 4.0 mph SSE6.4 kmh SSE 8.7 mph14.0 kmh 29.77 in1008.1 mb 0.00 in0.0 mm 0.00 in0.0 mm 0.56 in14.2 mm
03:10 PM 40.1°F4.5°C 40.1°F4.5°C 96% 4.9 mph S7.9 kmh S 5.8 mph9.3 kmh 29.77 in1008.1 mb 0.00 in0.0 mm 0.00 in0.0 mm 0.56 in14.2 mm
03:15 PM 40.1°F4.5°C 40.1°F4.5°C 96% 2.2 mph WSW3.5 kmh WSW 6.3 mph10.1 kmh 29.77 in1008.1 mb 0.00 in0.0 mm 0.00 in0.0 mm 0.56 in14.2 mm
03:20 PM 40.1°F4.5°C 40.1°F4.5°C 96% 2.7 mph SSE4.3 kmh SSE 5.8 mph9.3 kmh 29.77 in1008.1 mb 0.00 in0.0 mm 0.00 in0.0 mm 0.56 in14.2 mm
03:25 PM 40.1°F4.5°C 40.1°F4.5°C 96% 3.6 mph SSE5.8 kmh SSE 8.3 mph13.4 kmh 29.77 in1008.1 mb 0.00 in0.0 mm 0.00 in0.0 mm 0.56 in14.2 mm
03:30 PM 40.3°F4.6°C 40.3°F4.6°C 96% 5.8 mph SSE9.3 kmh SSE 7.6 mph12.2 kmh 29.80 in1009.1 mb 0.00 in0.0 mm 0.00 in0.0 mm 0.56 in14.2 mm
03:35 PM 40.3°F4.6°C 40.3°F4.6°C 96% 5.4 mph WSW8.7 kmh WSW 7.6 mph12.2 kmh 29.80 in1009.1 mb 0.00 in0.0 mm 0.00 in0.0 mm 0.56 in14.2 mm
03:40 PM 40.3°F4.6°C 40.3°F4.6°C 96% 3.1 mph SSE5.0 kmh SSE 3.1 mph5.0 kmh 29.80 in1009.1 mb 0.00 in0.0 mm 0.00 in0.0 mm 0.56 in14.2 mm
03:45 PM 40.3°F4.6°C 40.3°F4.6°C 96% 3.1 mph SSE5.0 kmh SSE 5.8 mph9.3 kmh 29.80 in1009.1 mb 0.00 in0.0 mm 0.00 in0.0 mm 0.56 in14.2 mm
03:50 PM 40.3°F4.6°C 40.3°F4.6°C 96% 5.4 mph S8.7 kmh S 5.4 mph8.7 kmh 29.80 in1009.1 mb 0.00 in0.0 mm 0.00 in0.0 mm 0.56 in14.2 mm
03:55 PM 40.3°F4.6°C 40.3°F4.6°C 96% 2.2 mph SSE3.5 kmh SSE 5.4 mph8.7 kmh 29.80 in1009.1 mb 0.00 in0.0 mm 0.00 in0.0 mm 0.56 in14.2 mm
04:00 PM 40.3°F4.6°C 40.3°F4.6°C 96% 5.4 mph SE8.7 kmh SE 5.8 mph9.3 kmh 29.80 in1009.1 mb 0.00 in0.0 mm 0.00 in0.0 mm 0.56 in14.2 mm
04:05 PM 40.3°F4.6°C 40.3°F4.6°C 96% 7.6 mph ESE12.2 kmh ESE 8.3 mph13.4 kmh 29.80 in1009.1 mb 0.00 in0.0 mm 0.00 in0.0 mm 0.56 in14.2 mm
04:10 PM 40.3°F4.6°C 40.3°F4.6°C 96% 4.9 mph S7.9 kmh S 4.9 mph7.9 kmh 29.80 in1009.1 mb 0.00 in0.0 mm 0.00 in0.0 mm 0.56 in14.2 mm
04:15 PM 40.3°F4.6°C 40.3°F4.6°C 96% 3.6 mph SSE5.8 kmh SSE 7.6 mph12.2 kmh 29.80 in1009.1 mb 0.00 in0.0 mm 0.00 in0.0 mm 0.56 in14.2 mm
04:20 PM 40.3°F4.6°C 40.3°F4.6°C 96% 3.6 mph SSE5.8 kmh SSE 3.6 mph5.8 kmh 29.80 in1009.1 mb 0.00 in0.0 mm 0.00 in0.0 mm 0.56 in14.2 mm
04:25 PM 40.3°F4.6°C 40.3°F4.6°C 96% 4.0 mph SE6.4 kmh SE 6.3 mph10.1 kmh 29.80 in1009.1 mb 0.00 in0.0 mm 0.00 in0.0 mm 0.56 in14.2 mm
04:30 PM 40.3°F4.6°C 40.3°F4.6°C 96% 4.0 mph S6.4 kmh S 4.9 mph7.9 kmh 29.77 in1008.1 mb 0.00 in0.0 mm 0.00 in0.0 mm 0.56 in14.2 mm
04:35 PM 40.4°F4.7°C 40.4°F4.7°C 96% 5.8 mph SE9.3 kmh SE 5.8 mph9.3 kmh 29.77 in1008.1 mb 0.00 in0.0 mm 0.00 in0.0 mm 0.56 in14.2 mm
04:40 PM 40.4°F4.7°C 40.4°F4.7°C 96% 4.0 mph SSE6.4 kmh SSE 5.4 mph8.7 kmh 29.77 in1008.1 mb 0.00 in0.0 mm 0.00 in0.0 mm 0.56 in14.2 mm
04:45 PM 40.6°F4.8°C 40.6°F4.8°C 96% 4.9 mph SSE7.9 kmh SSE 5.8 mph9.3 kmh 29.77 in1008.1 mb 0.00 in0.0 mm 0.00 in0.0 mm 0.56 in14.2 mm
04:50 PM 40.4°F4.7°C 40.4°F4.7°C 96% 5.4 mph SSE8.7 kmh SSE 5.4 mph8.7 kmh 29.77 in1008.1 mb 0.00 in0.0 mm 0.00 in0.0 mm 0.56 in14.2 mm
04:55 PM 40.4°F4.7°C 40.4°F4.7°C 96% 4.9 mph SSE7.9 kmh SSE 7.6 mph12.2 kmh 29.77 in1008.1 mb 0.00 in0.0 mm 0.00 in0.0 mm 0.56 in14.2 mm
05:00 PM 40.4°F4.7°C 40.4°F4.7°C 96% 3.6 mph S5.8 kmh S 4.0 mph6.4 kmh 29.77 in1008.1 mb 0.00 in0.0 mm 0.00 in0.0 mm 0.56 in14.2 mm
05:05 PM 40.4°F4.7°C 40.4°F4.7°C 96% 4.0 mph SSE6.4 kmh SSE 6.3 mph10.1 kmh 29.77 in1008.1 mb 0.00 in0.0 mm 0.00 in0.0 mm 0.56 in14.2 mm
05:10 PM 40.4°F4.7°C 40.4°F4.7°C 96% 5.8 mph SSE9.3 kmh SSE 5.8 mph9.3 kmh 29.77 in1008.1 mb 0.00 in0.0 mm 0.00 in0.0 mm 0.56 in14.2 mm
05:15 PM 40.3°F4.6°C 40.3°F4.6°C 96% 8.3 mph SE13.4 kmh SE 10.5 mph16.9 kmh 29.80 in1009.1 mb 0.00 in0.0 mm 0.00 in0.0 mm 0.56 in14.2 mm
05:20 PM 39.9°F4.4°C 39.9°F4.4°C 96% 4.0 mph SSE6.4 kmh SSE 5.4 mph8.7 kmh 29.80 in1009.1 mb 0.00 in0.0 mm 0.00 in0.0 mm 0.56 in14.2 mm
05:25 PM 39.7°F4.3°C 39.7°F4.3°C 96% 2.7 mph SSE4.3 kmh SSE 7.6 mph12.2 kmh 29.80 in1009.1 mb 0.00 in0.0 mm 0.00 in0.0 mm 0.56 in14.2 mm
05:30 PM 39.5°F4.2°C 39.5°F4.2°C 96% 5.4 mph SSE8.7 kmh SSE 5.4 mph8.7 kmh 29.80 in1009.1 mb 0.04 in1.0 mm 0.48 in12.2 mm 0.60 in15.2 mm
05:35 PM 39.4°F4.1°C 39.4°F4.1°C 96% 5.8 mph E9.3 kmh E 6.3 mph10.1 kmh 29.80 in1009.1 mb 0.04 in1.0 mm 0.00 in0.0 mm 0.60 in15.2 mm
05:40 PM 38.8°F3.8°C 38.8°F3.8°C 96% 8.1 mph WSW13.0 kmh WSW 8.1 mph13.0 kmh 29.80 in1009.1 mb 0.08 in2.0 mm 0.48 in12.2 mm 0.64 in16.3 mm
05:45 PM 38.1°F3.4°C 38.1°F3.4°C 96% 2.2 mph SE3.5 kmh SE 8.1 mph13.0 kmh 29.80 in1009.1 mb 0.08 in2.0 mm 0.00 in0.0 mm 0.64 in16.3 mm
05:50 PM 37.9°F3.3°C 37.9°F3.3°C 96% Calm Calm -- 29.80 in1009.1 mb 0.08 in2.0 mm 0.00 in0.0 mm 0.64 in16.3 mm
05:55 PM 37.9°F3.3°C 37.9°F3.3°C 96% Calm Calm 4.9 mph7.9 kmh 29.80 in1009.1 mb 0.08 in2.0 mm 0.00 in0.0 mm 0.64 in16.3 mm
06:00 PM 38.1°F3.4°C 38.1°F3.4°C 96% 2.7 mph SSE4.3 kmh SSE 2.7 mph4.3 kmh 29.80 in1009.1 mb 0.08 in2.0 mm 0.00 in0.0 mm 0.64 in16.3 mm
06:05 PM 38.3°F3.5°C 38.3°F3.5°C 96% 5.8 mph SE9.3 kmh SE 5.8 mph9.3 kmh 29.80 in1009.1 mb 0.08 in2.0 mm 0.00 in0.0 mm 0.64 in16.3 mm
06:10 PM 38.5°F3.6°C 38.5°F3.6°C 96% 2.7 mph S4.3 kmh S 3.6 mph5.8 kmh 29.80 in1009.1 mb 0.08 in2.0 mm 0.00 in0.0 mm 0.64 in16.3 mm
06:15 PM 38.6°F3.7°C 38.6°F3.7°C 96% 3.6 mph SSE5.8 kmh SSE 4.0 mph6.4 kmh 29.80 in1009.1 mb 0.12 in3.0 mm 0.48 in12.2 mm 0.68 in17.3 mm
06:20 PM 38.8°F3.8°C 38.8°F3.8°C 96% 3.1 mph S5.0 kmh S 3.6 mph5.8 kmh 29.80 in1009.1 mb 0.12 in3.0 mm 0.00 in0.0 mm 0.68 in17.3 mm
06:25 PM 39.2°F4.0°C 39.2°F4.0°C 96% 5.4 mph S8.7 kmh S 5.4 mph8.7 kmh 29.80 in1009.1 mb 0.12 in3.0 mm 0.00 in0.0 mm 0.68 in17.3 mm
06:30 PM 39.5°F4.2°C 39.5°F4.2°C 96% Calm Calm 3.1 mph5.0 kmh 29.83 in1010.2 mb 0.08 in2.0 mm 0.00 in0.0 mm 0.68 in17.3 mm
06:35 PM 39.7°F4.3°C 39.7°F4.3°C 96% 3.6 mph S5.8 kmh S 4.0 mph6.4 kmh 29.83 in1010.2 mb 0.08 in2.0 mm 0.00 in0.0 mm 0.68 in17.3 mm
06:41 PM 39.7°F4.3°C 39.7°F4.3°C 96% 6.3 mph SSE10.1 kmh SSE 6.3 mph10.1 kmh 29.83 in1010.2 mb 0.08 in2.0 mm 0.00 in0.0 mm 0.68 in17.3 mm
06:45 PM 39.9°F4.4°C 39.9°F4.4°C 96% 6.3 mph SSE10.1 kmh SSE 6.3 mph10.1 kmh 29.80 in1009.1 mb 0.08 in2.0 mm 0.00 in0.0 mm 0.68 in17.3 mm
07:02 PM 39.9°F4.4°C 39.9°F4.4°C 96% 8.1 mph S13.0 kmh S 8.1 mph13.0 kmh 29.80 in1009.1 mb 0.04 in1.0 mm 0.00 in0.0 mm 0.68 in17.3 mm
07:13 PM 40.1°F4.5°C 40.1°F4.5°C 96% 5.4 mph S8.7 kmh S 6.3 mph10.1 kmh 29.80 in1009.1 mb 0.04 in1.0 mm 0.00 in0.0 mm 0.68 in17.3 mm
07:33 PM 40.4°F4.7°C 40.4°F4.7°C 96% 3.6 mph S5.8 kmh S 7.2 mph11.6 kmh 29.80 in1009.1 mb 0.00 in0.0 mm 0.00 in0.0 mm 0.68 in17.3 mm
07:40 PM 41.2°F5.1°C 41.2°F5.1°C 96% 5.8 mph SE9.3 kmh SE 5.8 mph9.3 kmh 29.80 in1009.1 mb 0.00 in0.0 mm 0.00 in0.0 mm 0.68 in17.3 mm
07:45 PM 41.9°F5.5°C 41.9°F5.5°C 96% 5.8 mph SSE9.3 kmh SSE 8.3 mph13.4 kmh 29.80 in1009.1 mb 0.00 in0.0 mm 0.00 in0.0 mm 0.68 in17.3 mm
07:50 PM 41.7°F5.4°C 41.7°F5.4°C 96% 3.6 mph S5.8 kmh S 3.6 mph5.8 kmh 29.80 in1009.1 mb 0.00 in0.0 mm 0.00 in0.0 mm 0.68 in17.3 mm
07:55 PM 41.3°F5.2°C 41.3°F5.2°C 96% 2.7 mph S4.3 kmh S 11.9 mph19.2 kmh 29.80 in1009.1 mb 0.00 in0.0 mm 0.00 in0.0 mm 0.68 in17.3 mm
08:11 PM 41.7°F5.4°C 41.7°F5.4°C 96% 8.3 mph SSE13.4 kmh SSE 8.3 mph13.4 kmh 29.80 in1009.1 mb 0.00 in0.0 mm 0.00 in0.0 mm 0.68 in17.3 mm
08:15 PM 41.7°F5.4°C 41.7°F5.4°C 96% 5.4 mph SSE8.7 kmh SSE 8.3 mph13.4 kmh 29.80 in1009.1 mb 0.00 in0.0 mm 0.00 in0.0 mm 0.68 in17.3 mm
08:20 PM 41.5°F5.3°C 41.5°F5.3°C 96% 3.6 mph S5.8 kmh S 4.9 mph7.9 kmh 29.80 in1009.1 mb 0.00 in0.0 mm 0.00 in0.0 mm 0.68 in17.3 mm
08:25 PM 41.3°F5.2°C 41.3°F5.2°C 96% 2.7 mph SSE4.3 kmh SSE 5.8 mph9.3 kmh 29.80 in1009.1 mb 0.28 in7.1 mm 3.36 in85.3 mm 0.96 in24.4 mm
08:30 PM 41.3°F5.2°C 41.3°F5.2°C 96% 2.2 mph SSE3.5 kmh SSE 2.2 mph3.5 kmh 29.80 in1009.1 mb 0.28 in7.1 mm 0.00 in0.0 mm 0.96 in24.4 mm
08:36 PM 41.3°F5.2°C 41.3°F5.2°C 96% 2.7 mph WNW4.3 kmh WNW 6.3 mph10.1 kmh 29.80 in1009.1 mb 0.28 in7.1 mm 0.00 in0.0 mm 0.96 in24.4 mm
08:40 PM 41.5°F5.3°C 41.5°F5.3°C 96% 8.3 mph SE13.4 kmh SE 8.3 mph13.4 kmh 29.80 in1009.1 mb 0.28 in7.1 mm 0.00 in0.0 mm 0.96 in24.4 mm
08:45 PM 41.5°F5.3°C 41.5°F5.3°C 96% Calm Calm 8.3 mph13.4 kmh 29.77 in1008.1 mb 0.28 in7.1 mm 0.00 in0.0 mm 0.96 in24.4 mm
08:50 PM 41.5°F5.3°C 41.5°F5.3°C 96% 3.6 mph 5.8 kmh 4.9 mph7.9 kmh 29.77 in1008.1 mb 0.28 in7.1 mm 0.00 in0.0 mm 0.96 in24.4 mm
08:55 PM 41.5°F5.3°C 41.5°F5.3°C 96% 2.7 mph SSE4.3 kmh SSE 7.6 mph12.2 kmh 29.77 in1008.1 mb 0.28 in7.1 mm 0.00 in0.0 mm 0.96 in24.4 mm
09:01 PM 41.5°F5.3°C 41.5°F5.3°C 96% 2.2 mph S3.5 kmh S 3.6 mph5.8 kmh 29.77 in1008.1 mb 0.28 in7.1 mm 0.00 in0.0 mm 0.96 in24.4 mm
09:05 PM 41.5°F5.3°C 41.5°F5.3°C 96% 3.6 mph SW5.8 kmh SW 8.7 mph14.0 kmh 29.77 in1008.1 mb 0.28 in7.1 mm 0.00 in0.0 mm 0.96 in24.4 mm
09:15 PM 41.5°F5.3°C 41.5°F5.3°C 96% 5.4 mph S8.7 kmh S 6.3 mph10.1 kmh 29.77 in1008.1 mb 0.28 in7.1 mm 0.00 in0.0 mm 0.96 in24.4 mm
09:20 PM 41.3°F5.2°C 41.3°F5.2°C 96% 5.8 mph SE9.3 kmh SE 5.8 mph9.3 kmh 29.77 in1008.1 mb 0.28 in7.1 mm 0.00 in0.0 mm 0.96 in24.4 mm
09:25 PM 41.3°F5.2°C 41.3°F5.2°C 96% 3.6 mph S5.8 kmh S 5.8 mph9.3 kmh 29.77 in1008.1 mb 0.28 in7.1 mm 0.00 in0.0 mm 0.96 in24.4 mm
09:30 PM 41.5°F5.3°C 41.5°F5.3°C 96% 2.7 mph SSW4.3 kmh SSW 3.6 mph5.8 kmh 29.77 in1008.1 mb 0.00 in0.0 mm 0.00 in0.0 mm 0.96 in24.4 mm
09:35 PM 41.7°F5.4°C 41.7°F5.4°C 96% 4.9 mph SE7.9 kmh SE 5.4 mph8.7 kmh 29.77 in1008.1 mb 0.00 in0.0 mm 0.00 in0.0 mm 0.96 in24.4 mm
09:40 PM 41.7°F5.4°C 41.7°F5.4°C 96% Calm Calm -- 29.77 in1008.1 mb 0.00 in0.0 mm 0.00 in0.0 mm 0.96 in24.4 mm
09:45 PM 41.7°F5.4°C 41.7°F5.4°C 96% 2.7 mph SSE4.3 kmh SSE 6.3 mph10.1 kmh 29.77 in1008.1 mb 0.00 in0.0 mm 0.00 in0.0 mm 0.96 in24.4 mm
09:56 PM 41.3°F5.2°C 41.3°F5.2°C 96% 4.0 mph S6.4 kmh S 6.3 mph10.1 kmh 29.77 in1008.1 mb 0.00 in0.0 mm 0.00 in0.0 mm 0.96 in24.4 mm
10:00 PM 41.3°F5.2°C 41.3°F5.2°C 96% 5.8 mph S9.3 kmh S 7.6 mph12.2 kmh 29.77 in1008.1 mb 0.00 in0.0 mm 0.00 in0.0 mm 0.96 in24.4 mm
10:05 PM 41.5°F5.3°C 41.5°F5.3°C 96% 2.7 mph SE4.3 kmh SE 7.6 mph12.2 kmh 29.77 in1008.1 mb 0.00 in0.0 mm 0.00 in0.0 mm 0.96 in24.4 mm
10:12 PM 41.7°F5.4°C 41.7°F5.4°C 96% 2.2 mph SSE3.5 kmh SSE 8.1 mph13.0 kmh 29.77 in1008.1 mb 0.00 in0.0 mm 0.00 in0.0 mm 0.96 in24.4 mm
10:15 PM 42.1°F5.6°C 42.1°F5.6°C 96% 4.9 mph S7.9 kmh S 8.1 mph13.0 kmh 29.77 in1008.1 mb 0.00 in0.0 mm 0.00 in0.0 mm 0.96 in24.4 mm
10:20 PM 42.1°F5.6°C 42.1°F5.6°C 96% 5.4 mph SSE8.7 kmh SSE 5.4 mph8.7 kmh 29.77 in1008.1 mb 0.00 in0.0 mm 0.00 in0.0 mm 0.96 in24.4 mm
10:25 PM 41.9°F5.5°C 41.9°F5.5°C 96% Calm Calm 5.4 mph8.7 kmh 29.77 in1008.1 mb 0.00 in0.0 mm 0.00 in0.0 mm 0.96 in24.4 mm
10:30 PM 41.7°F5.4°C 41.7°F5.4°C 96% 3.6 mph S5.8 kmh S 3.6 mph5.8 kmh 29.77 in1008.1 mb 0.00 in0.0 mm 0.00 in0.0 mm 0.96 in24.4 mm
10:35 PM 41.7°F5.4°C 41.7°F5.4°C 96% 4.0 mph S6.4 kmh S 5.8 mph9.3 kmh 29.77 in1008.1 mb 0.00 in0.0 mm 0.00 in0.0 mm 0.96 in24.4 mm
10:40 PM 41.5°F5.3°C 41.5°F5.3°C 96% 3.1 mph SSE5.0 kmh SSE 3.6 mph5.8 kmh 29.77 in1008.1 mb 0.00 in0.0 mm 0.00 in0.0 mm 0.96 in24.4 mm
10:45 PM 41.5°F5.3°C 41.5°F5.3°C 96% 3.1 mph SSE5.0 kmh SSE 6.3 mph10.1 kmh 29.77 in1008.1 mb 0.00 in0.0 mm 0.00 in0.0 mm 0.96 in24.4 mm
10:50 PM 41.3°F5.2°C 41.3°F5.2°C 96% Calm Calm -- 29.77 in1008.1 mb 0.00 in0.0 mm 0.00 in0.0 mm 0.96 in24.4 mm
10:55 PM 41.5°F5.3°C 41.5°F5.3°C 96% Calm Calm -- 29.74 in1007.1 mb 0.00 in0.0 mm 0.00 in0.0 mm 0.96 in24.4 mm
11:00 PM 41.3°F5.2°C 41.3°F5.2°C 96% Calm Calm -- 29.74 in1007.1 mb 0.00 in0.0 mm 0.00 in0.0 mm 0.96 in24.4 mm
11:05 PM 41.5°F5.3°C 41.5°F5.3°C 96% 2.7 mph SE4.3 kmh SE 3.6 mph5.8 kmh 29.74 in1007.1 mb 0.00 in0.0 mm 0.00 in0.0 mm 0.96 in24.4 mm
11:10 PM 41.7°F5.4°C 41.7°F5.4°C 96% 5.4 mph SSE8.7 kmh SSE 5.4 mph8.7 kmh 29.74 in1007.1 mb 0.00 in0.0 mm 0.00 in0.0 mm 0.96 in24.4 mm
11:15 PM 41.7°F5.4°C 41.7°F5.4°C 96% 5.4 mph SE8.7 kmh SE 5.8 mph9.3 kmh 29.74 in1007.1 mb 0.00 in0.0 mm 0.00 in0.0 mm 0.96 in24.4 mm
11:20 PM 41.7°F5.4°C 41.7°F5.4°C 96% 5.4 mph SE8.7 kmh SE 6.3 mph10.1 kmh 29.74 in1007.1 mb 0.00 in0.0 mm 0.00 in0.0 mm 0.96 in24.4 mm
11:25 PM 41.9°F5.5°C 41.9°F5.5°C 96% 3.6 mph S5.8 kmh S 6.3 mph10.1 kmh 29.74 in1007.1 mb 0.00 in0.0 mm 0.00 in0.0 mm 0.96 in24.4 mm
11:30 PM 42.2°F5.7°C 42.2°F5.7°C 96% 4.0 mph S6.4 kmh S 4.9 mph7.9 kmh 29.74 in1007.1 mb 0.00 in0.0 mm 0.00 in0.0 mm 0.96 in24.4 mm
11:35 PM 42.2°F5.7°C 42.2°F5.7°C 96% 5.4 mph SE8.7 kmh SE 7.2 mph11.6 kmh 29.74 in1007.1 mb 0.00 in0.0 mm 0.00 in0.0 mm 0.96 in24.4 mm
11:40 PM 42.2°F5.7°C 42.2°F5.7°C 96% 5.4 mph WSW8.7 kmh WSW 5.4 mph8.7 kmh 29.74 in1007.1 mb 0.00 in0.0 mm 0.00 in0.0 mm 0.96 in24.4 mm
11:45 PM 42.1°F5.6°C 42.1°F5.6°C 96% Calm Calm 7.6 mph12.2 kmh 29.74 in1007.1 mb 0.00 in0.0 mm 0.00 in0.0 mm 0.96 in24.4 mm
11:50 PM 42.1°F5.6°C 42.1°F5.6°C 96% 5.8 mph SE9.3 kmh SE 5.8 mph9.3 kmh 29.74 in1007.1 mb 0.00 in0.0 mm 0.00 in0.0 mm 0.96 in24.4 mm
11:55 PM 41.9°F5.5°C 41.9°F5.5°C 96% 5.4 mph S8.7 kmh S 6.7 mph10.8 kmh 29.74 in1007.1 mb 0.00 in0.0 mm 0.00 in0.0 mm 0.96 in24.4 mm